Fort Indiantown Gap, PA

10:58 AM EDT on July 25, 2017 (GMT -0400)
Muir Army Air Field

Weather History for KMUI - January, 2014

Change the Weather History Date:

Friday, January 10, 2014

  Actual Average Record
Temperature  
Mean Temperature 28 °F -  
Max Temperature 33 °F 35 °F 55 °F (2002)
Min Temperature 24 °F 24 °F 3 °F (2015)
Degree Days  
Heating Degree Days 36    
Moisture  
Dew Point 29 °F    
Average Humidity 99    
Maximum Humidity 100    
Minimum Humidity 74    
Precipitation  
Precipitation 0.17 in - - ()
Sea Level Pressure  
Sea Level Pressure 30.36 in    
Wind  
Wind Speed 2 mph (NE)    
Max Wind Speed 5 mph    
Max Gust Speed -    
Visibility 3 miles    
Events Fog , Rain , Snow    
Averages and records for this station are not official NWS values.
T = Trace of Precipitation, MM = Missing Value Source: NWS Daily Summary

Daily Weather History Graph

Daily Weather History Graph

Search for Another Location

Airport or City:

Trip Planner

Search our weather history database for the weather conditions in past years. The results will help you decide how hot, cold, wet, or windy it might be!

Date:

Astronomy

Jan. 10, 2014 Rise Set
Actual Time 7:28 AM EST 4:59 PM EST
Civil Twilight 6:58 AM EST 5:29 PM EST
Nautical Twilight 6:24 AM EST 6:03 PM EST
Astronomical Twilight 5:52 AM EST 6:35 PM EST
Moon 1:01 PM EST (1/10) 2:34 AM EST (1/10)
Length of Visible Light 10h 30m
Length of Day
9h 30m
Waxing Gibbous, 75% of the Moon is Illuminated
Jan 10
Waxing Gibbous
Jan 15
Full
Jan 24
Last Quarter
Jan 30
New
Feb 6
First Quarter

Hourly Weather History & Observations

Time (EST) Temp. Windchill Dew Point Humidity Pressure Visibility Wind Dir Wind Speed Gust Speed Precip Events Conditions
12:58 AM 27.1 °F - 19.9 °F 74% 30.56 in 10.0 mi NE 2.3 mph - N/A   Clear
1:58 AM 27.1 °F - 21.6 °F 80% 30.56 in 10.0 mi NNE 1.2 mph - N/A   Clear
2:11 AM 26.6 °F - 21.2 °F 80% 30.53 in 9.0 mi ENE 2.3 mph - N/A   Scattered Clouds
2:14 AM 26.6 °F 21.2 °F 23.0 °F 86% 30.52 in 5.0 mi East 4.6 mph - N/A Snow Light Snow
2:16 AM 26.6 °F 22.6 °F 23.0 °F 86% 30.52 in 3.0 mi Variable 3.5 mph - N/A Snow Light Snow
2:18 AM 26.6 °F - 24.8 °F 93% 30.52 in 2.5 mi Variable 2.3 mph - N/A Snow Light Snow
2:22 AM 26.6 °F - 26.6 °F 100% 30.52 in 1.8 mi NE 2.3 mph - N/A Snow Light Snow
2:24 AM 26.6 °F - 24.8 °F 93% 30.52 in 1.5 mi NE 2.3 mph - N/A Snow Light Snow
2:32 AM 24.8 °F - 24.8 °F 100% 30.52 in 1.2 mi ENE 2.3 mph - N/A Snow Light Snow
2:40 AM 24.8 °F - 24.8 °F 100% 30.52 in 1.5 mi NNE 2.3 mph - N/A Snow Light Snow
2:48 AM 24.8 °F - 24.8 °F 100% 30.52 in 1.2 mi Calm Calm - N/A Snow Light Snow
2:52 AM 24.8 °F - 24.8 °F 100% 30.52 in 1.0 mi Calm Calm - N/A Snow Light Snow
2:58 AM 24.8 °F - 24.8 °F 100% 30.55 in 1.0 mi NNE 1.2 mph - 0.02 in Snow Light Snow
3:02 AM 24.8 °F - 24.8 °F 100% 30.52 in 1.2 mi NNE 1.2 mph - N/A Snow Light Snow
3:04 AM 24.8 °F - 24.8 °F 100% 30.51 in 1.2 mi NE 1.2 mph - N/A Snow Light Snow
3:08 AM 24.8 °F - 24.8 °F 100% 30.51 in 1.5 mi NE 2.3 mph - N/A Snow Light Snow
3:14 AM 24.8 °F - 24.8 °F 100% 30.51 in 1.8 mi NNE 2.3 mph - N/A Snow Light Snow
3:16 AM 24.8 °F - 24.8 °F 100% 30.50 in 1.8 mi NE 2.3 mph - N/A Snow Light Snow
3:18 AM 24.8 °F 20.5 °F 24.8 °F 100% 30.50 in 2.0 mi NE 3.5 mph - N/A Snow Light Snow
3:32 AM 24.8 °F - 24.8 °F 100% 30.49 in 3.0 mi NNE 2.3 mph - N/A Snow Light Snow
3:34 AM 24.8 °F 20.5 °F 24.8 °F 100% 30.49 in 3.0 mi NNE 3.5 mph - N/A Snow Light Snow
3:44 AM 24.8 °F - 24.8 °F 100% 30.49 in 2.5 mi NNE 2.3 mph - N/A Snow Light Snow
3:50 AM 24.8 °F - 24.8 °F 100% 30.48 in 3.0 mi NE 2.3 mph - N/A Snow Light Snow
3:58 AM 24.8 °F - 24.8 °F 100% 30.51 in 4.0 mi Variable 1.2 mph - 0.02 in Snow Light Snow
4:06 AM 24.8 °F - 24.8 °F 100% 30.48 in 6.0 mi NE 2.3 mph - N/A Snow Light Snow
4:08 AM 24.8 °F - 24.8 °F 100% 30.48 in 6.0 mi NE 2.3 mph - N/A Snow Light Snow
4:14 AM 24.8 °F - 24.8 °F 100% 30.47 in 6.0 mi ENE 2.3 mph - N/A Snow Light Snow
4:18 AM 24.8 °F - 24.8 °F 100% 30.46 in 6.0 mi NE 2.3 mph - N/A Snow Light Snow
4:24 AM 24.8 °F - 24.8 °F 100% 30.46 in 6.0 mi NE 2.3 mph - N/A Snow Light Snow
4:39 AM 24.8 °F - 24.8 °F 100% 30.46 in 9.0 mi NE 2.3 mph - N/A   Overcast
4:55 AM 24.8 °F - 24.8 °F 100% 30.45 in 9.0 mi ENE 2.3 mph - N/A   Scattered Clouds
4:58 AM 25.0 °F 20.7 °F 25.0 °F 100% 30.48 in 9.0 mi ENE 3.5 mph - 0.00 in   Scattered Clouds
5:00 AM 24.8 °F 19.1 °F 24.8 °F 100% 30.46 in 9.0 mi NE 4.6 mph - N/A   Mostly Cloudy
5:52 AM 24.8 °F - 24.8 °F 100% 30.45 in 10.0 mi East 2.3 mph - N/A   Overcast
5:58 AM 25.5 °F - 25.5 °F 100% 30.47 in 10.0 mi ENE 2.3 mph - N/A   Overcast
6:58 AM 25.9 °F - 25.9 °F 100% 30.49 in 10.0 mi NE 2.3 mph - N/A   Mostly Cloudy
7:00 AM 26.6 °F - 26.6 °F 100% 30.45 in 9.0 mi ENE 2.3 mph - N/A   Mostly Cloudy
7:18 AM 26.6 °F - 26.6 °F 100% 30.46 in 2.5 mi NE 1.2 mph - N/A Snow Light Snow
7:24 AM 26.6 °F - 26.6 °F 100% 30.46 in 1.8 mi NE 2.3 mph - N/A Snow Light Snow
7:26 AM 26.6 °F - 26.6 °F 100% 30.46 in 1.2 mi NE 1.2 mph - N/A Snow Light Snow
7:30 AM 26.6 °F - 26.6 °F 100% 30.46 in 1.0 mi NE 2.3 mph - N/A Snow Light Snow
7:54 AM 26.6 °F - 26.6 °F 100% 30.46 in 1.2 mi NE 2.3 mph - N/A Snow Light Snow
7:56 AM 26.6 °F - 26.6 °F 100% 30.46 in 1.5 mi NE 2.3 mph - N/A Snow Light Snow
7:58 AM 26.6 °F - 26.6 °F 100% 30.49 in 1.5 mi NE 2.3 mph - 0.01 in Snow Light Snow
8:04 AM 26.6 °F 22.6 °F 26.6 °F 100% 30.46 in 1.2 mi NE 3.5 mph - N/A Snow Light Snow
8:12 AM 26.6 °F 22.6 °F 26.6 °F 100% 30.46 in 1.5 mi ENE 3.5 mph - N/A Snow Light Snow
8:14 AM 26.6 °F 22.6 °F 26.6 °F 100% 30.46 in 2.0 mi ENE 3.5 mph - N/A Snow Light Snow
8:24 AM 26.6 °F 21.2 °F 26.6 °F 100% 30.45 in 1.8 mi ENE 4.6 mph - N/A Snow Light Snow
8:26 AM 26.6 °F 21.2 °F 26.6 °F 100% 30.45 in 1.5 mi ENE 4.6 mph - N/A Snow Light Snow
8:28 AM 26.6 °F 21.2 °F 26.6 °F 100% 30.45 in 1.2 mi East 4.6 mph - N/A Snow Light Snow
8:32 AM 26.6 °F 21.2 °F 26.6 °F 100% 30.45 in 1.0 mi ENE 4.6 mph - N/A Snow Light Snow
8:58 AM 26.2 °F 22.1 °F 26.2 °F 100% 30.49 in 1.0 mi ENE 3.5 mph - 0.03 in Snow Light Snow
9:02 AM 26.6 °F 22.6 °F 26.6 °F 100% 30.46 in 1.2 mi NE 3.5 mph - N/A Snow Light Snow
9:04 AM 26.6 °F 21.2 °F 26.6 °F 100% 30.46 in 1.5 mi NE 4.6 mph - N/A Snow Light Snow
9:08 AM 26.6 °F 22.6 °F 26.6 °F 100% 30.46 in 1.8 mi NNE 3.5 mph - N/A Snow Light Snow
9:10 AM 26.6 °F 21.2 °F 26.6 °F 100% 30.46 in 2.0 mi NE 4.6 mph - N/A Snow Light Snow
9:16 AM 26.6 °F 22.6 °F 26.6 °F 100% 30.45 in 3.0 mi ENE 3.5 mph - N/A Snow Light Snow
9:40 AM 26.6 °F - 26.6 °F 100% 30.45 in 6.0 mi NE 2.3 mph - N/A   Overcast
9:45 AM 26.6 °F - 26.6 °F 100% 30.45 in 6.0 mi NE 2.3 mph - N/A Snow Light Snow
9:53 AM 26.6 °F 21.2 °F 26.6 °F 100% 30.45 in 6.0 mi ENE 4.6 mph - N/A   Overcast
9:57 AM 28.4 °F 24.6 °F 28.4 °F 100% 30.45 in 7.0 mi ENE 3.5 mph - N/A   Overcast
9:58 AM 28.4 °F 24.6 °F 28.4 °F 100% 30.48 in 7.0 mi ENE 3.5 mph - 0.01 in   Overcast
10:58 AM 28.8 °F 25.0 °F 28.8 °F 100% 30.46 in 10.0 mi NE 3.5 mph - 0.00 in   Overcast
11:02 AM 28.4 °F 24.6 °F 28.4 °F 100% 30.43 in 10.0 mi East 3.5 mph - N/A   Overcast
11:58 AM 31.3 °F 27.9 °F 31.3 °F 100% 30.42 in 10.0 mi NE 3.5 mph - N/A   Overcast
12:32 PM 32.0 °F - 32.0 °F 100% 30.37 in 8.0 mi East 2.3 mph - N/A   Overcast
12:50 PM 32.0 °F 28.7 °F 32.0 °F 100% 30.37 in 8.0 mi SE 3.5 mph - N/A   Overcast
12:58 PM 32.4 °F - 32.4 °F 100% 30.39 in 7.0 mi ESE 2.3 mph - N/A   Overcast
1:30 PM 32.0 °F - 32.0 °F 100% 30.36 in 7.0 mi Variable 1.2 mph - N/A   Overcast
1:34 PM 32.0 °F - 32.0 °F 100% 30.35 in 8.0 mi Calm Calm - N/A   Overcast
1:42 PM 32.0 °F - 32.0 °F 100% 30.35 in 8.0 mi Calm Calm - N/A   Overcast
1:58 PM 33.6 °F - 33.6 °F 100% 30.37 in 7.0 mi Variable 1.2 mph - N/A   Overcast
2:16 PM 32.0 °F - 32.0 °F 100% 30.33 in 6.0 mi Variable 2.3 mph - N/A   Overcast
2:58 PM 33.6 °F - 33.6 °F 100% 30.36 in 5.0 mi Variable 1.2 mph - N/A   Overcast
3:02 PM 33.8 °F - 33.8 °F 100% 30.33 in 5.0 mi NE 1.2 mph - N/A   Overcast
3:34 PM 32.0 °F 28.7 °F 32.0 °F 100% 30.33 in 5.0 mi ENE 3.5 mph - N/A   Overcast
3:58 PM 33.4 °F - 33.4 °F 100% 30.35 in 4.0 mi ENE 1.2 mph - N/A   Overcast
4:58 PM 33.3 °F - 33.3 °F 100% 30.34 in 3.0 mi NE 2.3 mph - N/A   Overcast
5:18 PM 32.0 °F - 32.0 °F 100% 30.30 in 4.0 mi NNE 2.3 mph - N/A   Overcast
5:46 PM 32.0 °F - 32.0 °F 100% 30.30 in 2.5 mi ENE 2.3 mph - N/A   Overcast
5:54 PM 32.0 °F 28.7 °F 32.0 °F 100% 30.30 in 2.0 mi ENE 3.5 mph - N/A   Overcast
5:58 PM 32.9 °F 29.8 °F 32.9 °F 100% 30.33 in 2.0 mi East 3.5 mph - N/A   Overcast
6:06 PM 32.0 °F - 32.0 °F 100% 30.30 in 3.0 mi NE 1.2 mph - N/A   Overcast
6:32 PM 32.0 °F - 32.0 °F 100% 30.30 in 3.0 mi ENE 2.3 mph - N/A   Overcast
6:38 PM 32.0 °F - 32.0 °F 100% 30.30 in 2.5 mi NE 1.2 mph - N/A   Overcast
6:58 PM 32.0 °F - 32.0 °F 100% 30.32 in 1.8 mi ENE 2.3 mph - N/A   Overcast
7:02 PM 32.0 °F - 32.0 °F 100% 30.29 in 1.5 mi NE 2.3 mph - N/A   Overcast
7:12 PM 32.0 °F - 32.0 °F 100% 30.29 in 1.2 mi NE 2.3 mph - N/A   Overcast
7:25 PM 32.0 °F 28.7 °F 32.0 °F 100% 30.28 in 1.0 mi NE 3.5 mph - N/A   Light Drizzle
7:31 PM 32.0 °F 28.7 °F 32.0 °F 100% 30.28 in 0.8 mi NE 3.5 mph - N/A   Light Drizzle
7:35 PM 32.0 °F 28.7 °F 32.0 °F 100% 30.28 in 0.5 mi NE 3.5 mph - N/A Fog Light Drizzle
7:48 PM 32.0 °F 28.7 °F 32.0 °F 100% 30.27 in 0.5 mi NE 3.5 mph - N/A Fog Fog
7:52 PM 32.0 °F - 32.0 °F 100% 30.27 in 0.5 mi NE 2.3 mph - N/A Fog Fog
7:58 PM 32.5 °F - 32.5 °F 100% 30.30 in 0.5 mi NNE 2.3 mph - 0.00 in Fog Fog
8:20 PM 32.0 °F - 32.0 °F 100% 30.26 in 0.2 mi ENE 2.3 mph - N/A Fog Fog
8:26 PM 32.0 °F - 32.0 °F 100% 30.26 in 0.5 mi ENE 2.3 mph - N/A Fog Fog
8:39 PM 32.0 °F - 32.0 °F 100% 30.26 in 0.5 mi NE 1.2 mph - N/A Fog Fog
8:51 PM 32.0 °F - 32.0 °F 100% 30.25 in 0.2 mi ENE 2.3 mph - N/A Fog Fog
8:57 PM 32.0 °F - 32.0 °F 100% 30.25 in 0.5 mi ENE 2.3 mph - N/A Fog Fog
8:58 PM 32.0 °F - 32.0 °F 100% 30.28 in 0.5 mi ENE 2.3 mph - N/A Fog Fog
9:34 PM 32.0 °F - 32.0 °F 100% 30.24 in 0.5 mi ENE 2.3 mph - N/A Fog Fog
9:39 PM 32.0 °F - 32.0 °F 100% 30.23 in 0.5 mi ENE 2.3 mph - N/A Fog Light Drizzle
9:41 PM 32.0 °F - 32.0 °F 100% 30.23 in 0.8 mi ENE 2.3 mph - N/A   Light Drizzle
9:49 PM 32.0 °F - 32.0 °F 100% 30.23 in 0.8 mi ENE 2.3 mph - N/A   Light Drizzle
9:54 PM 32.0 °F - 32.0 °F 100% 30.23 in 0.8 mi NE 1.2 mph - N/A   Mist
9:56 PM 32.0 °F - 32.0 °F 100% 30.22 in 0.8 mi ENE 2.3 mph - N/A   Mist
9:58 PM 33.1 °F - 33.1 °F 100% 30.25 in 0.8 mi ENE 2.3 mph - 0.01 in   Mist
10:02 PM 32.0 °F - 32.0 °F 100% 30.22 in 0.5 mi NE 2.3 mph - N/A Fog Fog
10:03 PM 32.0 °F - 32.0 °F 100% 30.22 in 0.5 mi NE 2.3 mph - N/A Fog Light Drizzle
10:07 PM 32.0 °F - 32.0 °F 100% 30.22 in 0.5 mi NE 2.3 mph - N/A Fog Light Drizzle
10:12 PM 32.0 °F - 32.0 °F 100% 30.21 in 0.5 mi ENE 2.3 mph - N/A Fog Fog
10:22 PM 32.0 °F - 32.0 °F 100% 30.21 in 0.8 mi ENE 2.3 mph - N/A   Mist
10:24 PM 32.0 °F - 32.0 °F 100% 30.21 in 0.8 mi ENE 2.3 mph - N/A   Mist
10:25 PM 32.0 °F - 32.0 °F 100% 30.21 in 0.8 mi ENE 2.3 mph - N/A   Light Drizzle
10:27 PM 32.0 °F 28.7 °F 32.0 °F 100% 30.21 in 1.0 mi ENE 3.5 mph - N/A   Light Drizzle
10:35 PM 32.0 °F 28.7 °F 32.0 °F 100% 30.20 in 0.8 mi NE 3.5 mph - N/A   Light Drizzle
10:39 PM 32.0 °F - 32.0 °F 100% 30.20 in 0.8 mi NE 2.3 mph - N/A   Light Drizzle
10:45 PM 32.0 °F - 32.0 °F 100% 30.20 in 1.0 mi NE 2.3 mph - N/A Rain Light Rain
10:49 PM 32.0 °F 28.7 °F 32.0 °F 100% 30.20 in 0.8 mi NE 3.5 mph - N/A Rain Light Rain
10:53 PM 32.0 °F - 32.0 °F 100% 30.19 in 0.8 mi NE 2.3 mph - N/A Rain Light Rain
10:57 PM 32.0 °F 28.7 °F 32.0 °F 100% 30.19 in 0.5 mi NE 3.5 mph - N/A Fog , Rain Light Rain
10:58 PM 32.0 °F 28.7 °F 32.0 °F 100% 30.22 in 0.5 mi NE 3.5 mph - 0.02 in Fog , Rain Light Rain
11:08 PM 32.0 °F 28.7 °F 32.0 °F 100% 30.18 in 0.5 mi NE 3.5 mph - N/A Fog Light Drizzle
11:20 PM 32.0 °F 28.7 °F 32.0 °F 100% 30.18 in 0.5 mi ENE 3.5 mph - N/A Fog Light Drizzle
11:24 PM 32.0 °F - 32.0 °F 100% 30.18 in 0.8 mi ENE 2.3 mph - N/A   Light Drizzle
11:26 PM 32.0 °F - 32.0 °F 100% 30.17 in 1.0 mi ENE 2.3 mph - N/A   Light Drizzle
11:30 PM 32.0 °F - 32.0 °F 100% 30.17 in 1.0 mi NE 2.3 mph - N/A   Mist
11:32 PM 32.0 °F 28.7 °F 32.0 °F 100% 30.17 in 0.8 mi NE 3.5 mph - N/A   Mist
11:33 PM 32.0 °F 28.7 °F 32.0 °F 100% 30.16 in 0.8 mi NE 3.5 mph - N/A   Light Drizzle
11:35 PM 32.0 °F 28.7 °F 32.0 °F 100% 30.16 in 0.5 mi ENE 3.5 mph - N/A Fog Light Drizzle
11:43 PM 32.0 °F 28.7 °F 32.0 °F 100% 30.15 in 0.5 mi ENE 3.5 mph - N/A Fog , Rain Light Rain
11:47 PM 32.0 °F 28.7 °F 32.0 °F 100% 30.15 in 0.2 mi NE 3.5 mph - N/A Fog , Rain Light Rain
11:49 PM 32.0 °F 28.7 °F 32.0 °F 100% 30.15 in 0.5 mi NE 3.5 mph - N/A Fog , Rain Light Rain
11:58 PM 33.1 °F 30.0 °F 33.1 °F 100% 30.17 in 0.5 mi NE 3.5 mph - 0.05 in Fog Light Drizzle